Time;durP1;ratioP1;P1;durP2;ratioP2;P2;SDS_P1;SDS_P2;PMS_P1;PMS_P2;Temp;Humidity;BMP_temperature;BMP_pressure;BME280_temperature;BME280_humidity;BME280_pressure;Samples;Min_cycle;Max_cycle;Signal;HPM_P1;HPM_P2
2022/08/28 00:02:04;;;;;;;1.60;0.77;;;;;;;;;;5035544;28;20048;-55
2022/08/28 00:04:31;;;;;;;1.52;0.85;;;;;;;;;;5036271;28;20052;-56
2022/08/28 00:06:57;;;;;;;1.77;1.00;;;;;;;;;;5031266;28;20045;-58
2022/08/28 00:09:23;;;;;;;1.65;0.80;;;;;;;;;;5037109;28;20550;-52
2022/08/28 00:11:49;;;;;;;0.88;0.70;;;;;;;;;;5035471;28;20380;-55
2022/08/28 00:14:19;;;;;;;0.98;0.70;;;;;;;;;;5035206;28;20133;-51
2022/08/28 00:16:46;;;;;;;1.13;0.73;;;;;;;;;;5035859;28;20049;-55
2022/08/28 00:19:13;;;;;;;0.93;0.80;;;;;;;;;;5029138;28;20075;-56
2022/08/28 00:21:39;;;;;;;1.45;0.82;;;;;;;;;;5033745;28;20120;-56
2022/08/28 00:24:05;;;;;;;2.17;0.82;;;;;;;;;;5030759;28;20060;-55
2022/08/28 00:29:16;;;;;;;0.93;0.60;;;;;;;;;;5032862;28;20131;-54
2022/08/28 00:31:42;;;;;;;0.73;0.73;;;;;;;;;;5031471;28;20132;-53
2022/08/28 00:34:08;;;;;;;0.90;0.60;;;;;;;;;;5027188;28;20045;-56
2022/08/28 00:36:35;;;;;;;0.77;0.45;;;;;;;;;;5037050;28;20765;-53
2022/08/28 00:39:01;;;;;;;1.30;0.70;;;;;;;;;;5027499;28;20041;-55
2022/08/28 00:41:29;;;;;;;2.47;0.95;;;;;;;;;;5031830;28;20048;-56
2022/08/28 00:44:10;;;;;;;1.17;0.80;;;;;;;;;;5035230;28;20143;-54
2022/08/28 00:46:37;;;;;;;1.10;1.00;;;;;;;;;;5030935;28;20406;-55
2022/08/28 00:49:04;;;;;;;2.05;0.70;;;;;;;;;;5035781;28;20511;-56
2022/08/28 00:54:17;;;;;;;1.02;0.70;;;;;;;;;;5032929;28;20049;-53
2022/08/28 00:56:46;;;;;;;1.40;0.80;;;;;;;;;;5035169;28;20061;-53
2022/08/28 00:59:14;;;;;;;1.98;0.90;;;;;;;;;;5035696;28;20056;-55
2022/08/28 01:01:40;;;;;;;0.80;0.70;;;;;;;;;;5037929;28;20046;-53
2022/08/28 01:04:07;;;;;;;1.88;0.90;;;;;;;;;;5034725;28;20401;-55
2022/08/28 01:06:36;;;;;;;1.10;0.80;;;;;;;;;;5036080;28;20556;-53
2022/08/28 01:09:03;;;;;;;0.88;0.73;;;;;;;;;;5031073;28;20052;-56
2022/08/28 01:11:30;;;;;;;0.90;0.73;;;;;;;;;;5034726;28;20041;-54
2022/08/28 01:13:58;;;;;;;0.93;0.60;;;;;;;;;;5029418;28;20052;-56
2022/08/28 01:16:25;;;;;;;0.60;0.60;;;;;;;;;;5037593;28;20057;-54
2022/08/28 01:18:52;;;;;;;1.08;0.60;;;;;;;;;;5034841;28;20049;-51
2022/08/28 01:21:22;;;;;;;1.23;0.80;;;;;;;;;;5038253;28;20049;-56
2022/08/28 01:24:00;;;;;;;2.38;1.00;;;;;;;;;;5038261;28;20045;-56
2022/08/28 01:26:27;;;;;;;1.33;0.70;;;;;;;;;;5036734;28;20525;-54
2022/08/28 01:28:53;;;;;;;0.77;0.57;;;;;;;;;;5036088;28;20049;-56
2022/08/28 01:31:20;;;;;;;2.17;1.10;;;;;;;;;;5039490;28;20499;-54
2022/08/28 01:33:47;;;;;;;1.27;0.60;;;;;;;;;;5033903;28;20049;-57
2022/08/28 01:36:14;;;;;;;1.20;0.70;;;;;;;;;;5036994;28;20056;-56
2022/08/28 01:38:41;;;;;;;0.98;0.60;;;;;;;;;;5036200;28;20041;-54
2022/08/28 01:41:08;;;;;;;1.13;0.85;;;;;;;;;;5033086;28;20077;-53
2022/08/28 01:43:34;;;;;;;1.27;0.70;;;;;;;;;;5036160;28;20052;-56
2022/08/28 01:46:02;;;;;;;0.85;0.50;;;;;;;;;;5034587;28;20049;-60
2022/08/28 01:48:29;;;;;;;1.13;0.77;;;;;;;;;;5037082;28;20048;-57
2022/08/28 01:50:55;;;;;;;0.90;0.60;;;;;;;;;;5036783;28;20077;-56
2022/08/28 01:53:22;;;;;;;1.35;0.60;;;;;;;;;;5038276;28;20073;-54
2022/08/28 01:55:49;;;;;;;0.77;0.60;;;;;;;;;;5035379;28;20049;-56
2022/08/28 01:58:15;;;;;;;0.90;0.68;;;;;;;;;;5024859;28;20179;-55
2022/08/28 02:00:41;;;;;;;4.68;0.80;;;;;;;;;;5027487;28;20045;-55
2022/08/28 02:03:08;;;;;;;1.25;0.70;;;;;;;;;;5026499;28;20107;-55
2022/08/28 02:05:34;;;;;;;0.60;0.50;;;;;;;;;;5027001;28;20041;-55
2022/08/28 02:08:02;;;;;;;0.80;0.73;;;;;;;;;;5025883;28;20049;-54
2022/08/28 02:10:29;;;;;;;1.40;0.80;;;;;;;;;;5027775;28;20050;-52
2022/08/28 02:12:55;;;;;;;0.90;0.60;;;;;;;;;;5026798;28;20103;-52
2022/08/28 02:15:22;;;;;;;1.13;0.50;;;;;;;;;;5026563;28;20049;-54
2022/08/28 02:17:48;;;;;;;0.70;0.60;;;;;;;;;;5026879;28;20041;-55
2022/08/28 02:20:14;;;;;;;0.90;0.70;;;;;;;;;;5026260;28;20593;-54
2022/08/28 02:22:40;;;;;;;0.82;0.40;;;;;;;;;;5018553;28;20403;-54
2022/08/28 02:25:07;;;;;;;1.70;0.73;;;;;;;;;;5025690;28;20053;-52
2022/08/28 02:27:33;;;;;;;0.93;0.80;;;;;;;;;;5026938;28;20041;-55
2022/08/28 02:29:59;;;;;;;0.35;0.32;;;;;;;;;;5026900;28;20096;-54
2022/08/28 02:32:26;;;;;;;1.40;0.75;;;;;;;;;;5025723;28;21642;-54
2022/08/28 02:34:52;;;;;;;1.17;0.70;;;;;;;;;;5025959;28;20045;-54
2022/08/28 02:37:19;;;;;;;0.63;0.43;;;;;;;;;;5026357;28;20525;-56
2022/08/28 02:39:45;;;;;;;0.88;0.40;;;;;;;;;;5025830;28;20049;-60
2022/08/28 02:42:11;;;;;;;0.65;0.60;;;;;;;;;;5026132;28;20756;-53
2022/08/28 02:44:37;;;;;;;1.13;0.70;;;;;;;;;;5026570;28;20033;-55
2022/08/28 02:47:03;;;;;;;2.13;0.60;;;;;;;;;;5025563;28;20081;-53
2022/08/28 02:49:30;;;;;;;0.70;0.70;;;;;;;;;;5026183;28;20049;-59
2022/08/28 02:51:57;;;;;;;0.50;0.50;;;;;;;;;;5026732;28;20045;-56
2022/08/28 02:54:25;;;;;;;0.60;0.50;;;;;;;;;;5025237;28;20084;-53
2022/08/28 02:56:51;;;;;;;0.80;0.60;;;;;;;;;;5029251;28;20072;-54
2022/08/28 02:59:17;;;;;;;1.25;0.60;;;;;;;;;;5037947;28;20069;-53
2022/08/28 03:01:43;;;;;;;1.23;0.60;;;;;;;;;;5034840;28;20045;-53
2022/08/28 03:04:10;;;;;;;1.48;0.63;;;;;;;;;;5033190;28;20041;-52
2022/08/28 03:06:36;;;;;;;1.08;0.68;;;;;;;;;;5035866;28;20040;-55
2022/08/28 03:09:02;;;;;;;0.85;0.70;;;;;;;;;;5037332;28;20475;-52
2022/08/28 03:11:28;;;;;;;0.88;0.60;;;;;;;;;;5032691;28;20099;-54
2022/08/28 03:13:54;;;;;;;1.13;0.40;;;;;;;;;;5033109;28;20049;-55
2022/08/28 03:16:20;;;;;;;0.65;0.50;;;;;;;;;;5036870;28;20053;-53
2022/08/28 03:18:46;;;;;;;0.50;0.38;;;;;;;;;;5037122;28;20383;-59
2022/08/28 03:21:12;;;;;;;0.50;0.50;;;;;;;;;;5036816;28;20052;-58
2022/08/28 03:23:39;;;;;;;0.70;0.47;;;;;;;;;;5034878;28;20132;-54
2022/08/28 03:26:07;;;;;;;0.82;0.68;;;;;;;;;;5039285;28;20508;-57
2022/08/28 03:28:37;;;;;;;0.80;0.50;;;;;;;;;;5035905;28;20053;-54
2022/08/28 03:31:04;;;;;;;0.40;0.40;;;;;;;;;;5033794;28;20405;-54
2022/08/28 03:33:30;;;;;;;0.35;0.35;;;;;;;;;;5034037;28;20620;-56
2022/08/28 03:35:56;;;;;;;0.50;0.32;;;;;;;;;;5030955;28;20144;-54
2022/08/28 03:38:23;;;;;;;1.42;0.60;;;;;;;;;;5034680;28;20061;-55
2022/08/28 03:40:50;;;;;;;0.63;0.50;;;;;;;;;;5030091;28;20056;-54
2022/08/28 03:43:17;;;;;;;0.47;0.30;;;;;;;;;;5034451;28;20065;-53
2022/08/28 03:46:03;;;;;;;0.77;0.40;;;;;;;;;;5030812;28;20063;-54
2022/08/28 03:48:31;;;;;;;0.88;0.40;;;;;;;;;;5035588;28;20044;-54
2022/08/28 03:50:58;;;;;;;2.10;0.55;;;;;;;;;;5034416;28;20084;-54
2022/08/28 03:53:25;;;;;;;0.77;0.38;;;;;;;;;;5029359;28;20045;-53
2022/08/28 03:55:51;;;;;;;0.52;0.30;;;;;;;;;;5033442;28;20493;-54
2022/08/28 03:58:18;;;;;;;0.93;0.57;;;;;;;;;;5042053;28;20060;-53
2022/08/28 04:00:44;;;;;;;0.47;0.28;;;;;;;;;;5045246;28;20045;-54
2022/08/28 04:03:13;;;;;;;0.63;0.40;;;;;;;;;;5043728;28;20041;-54
2022/08/28 04:05:43;;;;;;;0.88;0.47;;;;;;;;;;5043816;28;20091;-56
2022/08/28 04:08:11;;;;;;;1.58;0.40;;;;;;;;;;5044181;28;20478;-56
2022/08/28 04:10:37;;;;;;;0.68;0.47;;;;;;;;;;5043598;28;20612;-56
2022/08/28 04:13:03;;;;;;;0.40;0.28;;;;;;;;;;5044717;28;20075;-56
2022/08/28 04:15:30;;;;;;;1.38;0.70;;;;;;;;;;5045127;28;20045;-58
2022/08/28 04:17:56;;;;;;;0.85;0.40;;;;;;;;;;5044604;28;20049;-54
2022/08/28 04:20:22;;;;;;;1.85;0.40;;;;;;;;;;5044365;28;20468;-53
2022/08/28 04:22:48;;;;;;;1.38;0.60;;;;;;;;;;5044670;28;20228;-55
2022/08/28 04:25:15;;;;;;;1.80;0.63;;;;;;;;;;5043990;28;20045;-54
2022/08/28 04:27:41;;;;;;;1.00;0.40;;;;;;;;;;5044963;28;20048;-54
2022/08/28 04:30:08;;;;;;;1.08;0.40;;;;;;;;;;5044214;28;20130;-58
2022/08/28 04:32:34;;;;;;;0.73;0.47;;;;;;;;;;5042480;28;20040;-54
2022/08/28 04:35:01;;;;;;;0.52;0.35;;;;;;;;;;5044320;28;20056;-56
2022/08/28 04:37:27;;;;;;;0.60;0.40;;;;;;;;;;5045487;28;20053;-56
2022/08/28 04:39:53;;;;;;;0.60;0.50;;;;;;;;;;5042999;28;20045;-55
2022/08/28 04:42:19;;;;;;;1.00;0.40;;;;;;;;;;5042575;28;20056;-51
2022/08/28 04:44:45;;;;;;;0.55;0.52;;;;;;;;;;5045080;28;20037;-59
2022/08/28 04:47:11;;;;;;;0.40;0.32;;;;;;;;;;5045033;28;20136;-56
2022/08/28 04:49:37;;;;;;;0.30;0.30;;;;;;;;;;5048634;28;20116;-56
2022/08/28 04:52:03;;;;;;;1.27;0.57;;;;;;;;;;5048320;28;20052;-55
2022/08/28 04:54:32;;;;;;;0.30;0.30;;;;;;;;;;5047963;28;20047;-54
2022/08/28 04:56:58;;;;;;;0.60;0.30;;;;;;;;;;5046091;28;20065;-56
2022/08/28 04:59:24;;;;;;;0.45;0.20;;;;;;;;;;5040076;28;20471;-56
2022/08/28 05:01:50;;;;;;;1.00;0.47;;;;;;;;;;5035379;28;20044;-56
2022/08/28 05:04:18;;;;;;;0.35;0.20;;;;;;;;;;5036207;28;20093;-54
2022/08/28 05:06:45;;;;;;;0.65;0.28;;;;;;;;;;5032559;28;20096;-54
2022/08/28 05:09:11;;;;;;;0.13;0.10;;;;;;;;;;5034925;28;20045;-54
2022/08/28 05:11:38;;;;;;;0.75;0.40;;;;;;;;;;5040231;28;20033;-57
2022/08/28 05:14:05;;;;;;;0.20;0.15;;;;;;;;;;5032668;28;20054;-54
2022/08/28 05:16:33;;;;;;;0.88;0.20;;;;;;;;;;5033364;28;20049;-56
2022/08/28 05:19:00;;;;;;;0.10;0.10;;;;;;;;;;5033215;28;20066;-55
2022/08/28 05:21:27;;;;;;;0.20;0.20;;;;;;;;;;5034844;28;20080;-54
2022/08/28 05:23:55;;;;;;;0.20;0.20;;;;;;;;;;5035245;28;20585;-54
2022/08/28 05:26:21;;;;;;;0.20;0.20;;;;;;;;;;5032830;28;20053;-54
2022/08/28 05:28:47;;;;;;;0.10;0.10;;;;;;;;;;5040118;28;20051;-55
2022/08/28 05:31:18;;;;;;;0.08;0.08;;;;;;;;;;5036877;28;20045;-54
2022/08/28 05:33:46;;;;;;;0.10;0.10;;;;;;;;;;5036189;28;20047;-56
2022/08/28 05:36:12;;;;;;;0.10;0.10;;;;;;;;;;5036786;28;20406;-55
2022/08/28 05:38:38;;;;;;;0.22;0.10;;;;;;;;;;5035738;28;20048;-56
2022/08/28 05:41:04;;;;;;;0.10;0.10;;;;;;;;;;5036976;28;20049;-54
2022/08/28 05:43:31;;;;;;;0.05;0.00;;;;;;;;;;5035617;28;20076;-57
2022/08/28 05:45:58;;;;;;;0.10;0.08;;;;;;;;;;5030925;28;20276;-54
2022/08/28 05:48:30;;;;;;;0.00;0.00;;;;;;;;;;5034064;28;20061;-54
2022/08/28 05:50:57;;;;;;;0.00;0.00;;;;;;;;;;5037391;28;20084;-55
2022/08/28 05:53:24;;;;;;;0.10;0.10;;;;;;;;;;5036296;28;20060;-57
2022/08/28 05:55:50;;;;;;;0.17;0.10;;;;;;;;;;5030678;28;20057;-54
2022/08/28 05:58:28;;;;;;;0.20;0.10;;;;;;;;;;5037677;28;20053;-54
2022/08/28 06:01:06;;;;;;;0.15;0.08;;;;;;;;;;5032802;28;20052;-56
2022/08/28 06:03:32;;;;;;;0.20;0.10;;;;;;;;;;5032512;28;20045;-54
2022/08/28 06:05:59;;;;;;;0.60;0.30;;;;;;;;;;5034569;28;20068;-56
2022/08/28 06:08:26;;;;;;;0.47;0.20;;;;;;;;;;5037911;28;20048;-53
2022/08/28 06:10:53;;;;;;;0.30;0.22;;;;;;;;;;5034269;28;20745;-57
2022/08/28 06:13:19;;;;;;;0.10;0.10;;;;;;;;;;5037271;28;20056;-54
2022/08/28 06:15:46;;;;;;;0.20;0.20;;;;;;;;;;5035549;28;20045;-58
2022/08/28 06:18:12;;;;;;;0.00;0.00;;;;;;;;;;5036380;28;20043;-56
2022/08/28 06:20:42;;;;;;;0.17;0.10;;;;;;;;;;5035720;28;20044;-55
2022/08/28 06:23:09;;;;;;;0.20;0.20;;;;;;;;;;5026418;28;20490;-56
2022/08/28 06:25:39;;;;;;;0.40;0.20;;;;;;;;;;5032777;28;20124;-56
2022/08/28 06:28:06;;;;;;;0.20;0.20;;;;;;;;;;5032881;28;20053;-53
2022/08/28 06:30:34;;;;;;;0.20;0.10;;;;;;;;;;5032295;28;20049;-56
2022/08/28 06:33:00;;;;;;;0.77;0.40;;;;;;;;;;5036222;28;20041;-58
2022/08/28 06:35:26;;;;;;;0.88;0.45;;;;;;;;;;5035933;28;20060;-56
2022/08/28 06:37:52;;;;;;;0.85;0.50;;;;;;;;;;5036747;28;20041;-54
2022/08/28 06:40:18;;;;;;;3.22;0.55;;;;;;;;;;5032582;28;20045;-56
2022/08/28 06:42:44;;;;;;;1.88;0.57;;;;;;;;;;5032389;28;20397;-56
2022/08/28 06:45:11;;;;;;;0.70;0.40;;;;;;;;;;5036602;28;20045;-56
2022/08/28 06:47:37;;;;;;;0.47;0.32;;;;;;;;;;5013382;28;20167;-52
2022/08/28 06:50:04;;;;;;;1.00;0.45;;;;;;;;;;5022968;28;20132;-54
2022/08/28 06:52:30;;;;;;;0.85;0.60;;;;;;;;;;5038958;28;20124;-60
2022/08/28 06:54:57;;;;;;;1.90;1.00;;;;;;;;;;5025999;28;20088;-56
2022/08/28 06:57:24;;;;;;;1.75;0.75;;;;;;;;;;5034710;28;20130;-54
2022/08/28 06:59:50;;;;;;;2.33;0.75;;;;;;;;;;5045249;28;20049;-52
2022/08/28 07:02:17;;;;;;;1.63;0.80;;;;;;;;;;5041432;28;20406;-56
2022/08/28 07:04:43;;;;;;;1.77;0.90;;;;;;;;;;5045828;28;20041;-54
2022/08/28 07:07:10;;;;;;;1.17;0.73;;;;;;;;;;5044236;28;20052;-54
2022/08/28 07:09:35;;;;;;;;;;;;;;;;;;5044544;28;20057;-57
2022/08/28 07:12:01;;;;;;;;;;;;;;;;;;5045428;28;20400;-51
2022/08/28 07:14:28;;;;;;;;;;;;;;;;;;5046190;28;20403;-54
2022/08/28 07:16:54;;;;;;;;;;;;;;;;;;5046456;28;20008;-56
2022/08/28 07:19:20;;;;;;;;;;;;;;;;;;5045115;28;19928;-54
2022/08/28 07:21:47;;;;;;;;;;;;;;;;;;5045553;28;20031;-57
2022/08/28 07:24:13;;;;;;;;;;;;;;;;;;5045838;28;20616;-54
2022/08/28 07:26:39;;;;;;;;;;;;;;;;;;5044221;28;19967;-53
2022/08/28 07:29:06;;;;;;;;;;;;;;;;;;5045739;28;19933;-61
2022/08/28 07:31:32;;;;;;;;;;;;;;;;;;5045666;28;20450;-49
2022/08/28 07:33:58;;;;;;;;;;;;;;;;;;5046939;28;19932;-57
2022/08/28 07:36:24;;;;;;;;;;;;;;;;;;5046325;28;20004;-59
2022/08/28 07:38:50;;;;;;;;;;;;;;;;;;5046775;28;20504;-55
2022/08/28 07:41:16;;;;;;;;;;;;;;;;;;5046852;28;19935;-56
2022/08/28 07:46:28;;;;;;;;;;;;;;;;;;5046231;28;20041;-56
2022/08/28 07:48:53;;;;;;;;;;;;;;;;;;5045762;28;19929;-57
2022/08/28 07:51:20;;;;;;;1.30;0.90;;;;;;;;;;5046522;28;20338;-55
2022/08/28 07:53:46;;;;;;;2.50;1.00;;;;;;;;;;5046115;28;19935;-61
2022/08/28 07:56:12;;;;;;;3.00;0.90;;;;;;;;;;5045154;28;20433;-55
2022/08/28 07:58:38;;;;;;;1.52;0.93;;;;;;;;;;5046192;28;20141;-56
2022/08/28 08:01:04;;;;;;;1.17;0.75;;;;;;;;;;5040984;28;20050;-58
2022/08/28 08:03:31;;;;;;;1.83;1.13;;;;;;;;;;5037177;28;20318;-62
2022/08/28 08:06:00;;;;;;;1.30;0.80;;;;;;;;;;5035335;28;20052;-58
2022/08/28 08:08:26;;;;;;;0.77;0.70;;;;;;;;;;5045864;28;20052;-56
2022/08/28 08:11:13;;;;;;;1.20;0.80;;;;;;;;;;5043491;28;20088;-57
2022/08/28 08:13:39;;;;;;;0.82;0.63;;;;;;;;;;5044590;28;20057;-57
2022/08/28 08:16:05;;;;;;;1.27;0.90;;;;;;;;;;5044944;28;20053;-55
2022/08/28 08:18:32;;;;;;;1.40;1.10;;;;;;;;;;5044962;28;20242;-58
2022/08/28 08:20:58;;;;;;;0.90;0.68;;;;;;;;;;5045865;28;20556;-58
2022/08/28 08:23:25;;;;;;;1.85;1.10;;;;;;;;;;5046378;28;20049;-55
2022/08/28 08:25:59;;;;;;;1.88;0.65;;;;;;;;;;5044722;28;20128;-55
2022/08/28 08:28:26;;;;;;;1.30;0.73;;;;;;;;;;5046194;28;20521;-55
2022/08/28 08:31:28;;;;;;;2.45;1.17;;;;;;;;;;5044986;28;20064;-55
2022/08/28 08:33:54;;;;;;;;;;;;;;;;;;4982478;28;19926;-58
2022/08/28 08:36:21;;;;;;;1.40;1.00;;;;;;;;;;5032985;28;20170;-57
2022/08/28 08:38:48;;;;;;;1.33;1.08;;;;;;;;;;5044635;28;20052;-54
2022/08/28 08:41:14;;;;;;;1.45;1.02;;;;;;;;;;5045013;28;20049;-54
2022/08/28 08:43:48;;;;;;;1.70;1.13;;;;;;;;;;5045396;28;20516;-57
2022/08/28 08:46:14;;;;;;;1.95;1.23;;;;;;;;;;5045100;28;20095;-54
2022/08/28 08:48:42;;;;;;;2.13;1.13;;;;;;;;;;5037208;28;20044;-56
2022/08/28 08:51:14;;;;;;;2.45;1.13;;;;;;;;;;5028153;28;20041;-57
2022/08/28 08:53:47;;;;;;;2.05;1.25;;;;;;;;;;5031945;28;20046;-57
2022/08/28 08:56:15;;;;;;;3.35;1.40;;;;;;;;;;5032934;28;20441;-56
2022/08/28 08:58:49;;;;;;;2.92;1.30;;;;;;;;;;5038714;28;20041;-54
2022/08/28 09:01:22;;;;;;;1.77;1.10;;;;;;;;;;5037379;28;20064;-51
2022/08/28 09:03:48;;;;;;;2.25;1.15;;;;;;;;;;5037167;28;20049;-56
2022/08/28 09:06:13;;;;;;;;;;;;;;;;;;5024857;28;20115;-56
2022/08/28 09:08:43;;;;;;;2.65;1.52;;;;;;;;;;5042869;28;19925;-57
2022/08/28 09:11:28;;;;;;;3.17;1.52;;;;;;;;;;5044971;28;20127;-57
2022/08/28 09:14:06;;;;;;;2.13;0.98;;;;;;;;;;5039137;28;20049;-54
2022/08/28 09:16:35;;;;;;;1.48;1.05;;;;;;;;;;5030823;28;20486;-55
2022/08/28 09:19:02;;;;;;;1.15;0.80;;;;;;;;;;5026019;28;20477;-56
2022/08/28 09:21:30;;;;;;;1.85;0.90;;;;;;;;;;5037056;28;20566;-56
2022/08/28 09:24:00;;;;;;;0.70;0.63;;;;;;;;;;5042660;28;20055;-54
2022/08/28 09:26:26;;;;;;;1.55;0.90;;;;;;;;;;5028107;28;20120;-56
2022/08/28 09:29:01;;;;;;;1.33;0.95;;;;;;;;;;5036543;28;20048;-56
2022/08/28 09:31:32;;;;;;;1.58;1.15;;;;;;;;;;5046015;28;20747;-52
2022/08/28 09:34:16;;;;;;;4.20;1.37;;;;;;;;;;5045848;28;20576;-59
2022/08/28 09:36:42;;;;;;;1.45;1.15;;;;;;;;;;5035084;28;20418;-55
2022/08/28 09:39:08;;;;;;;2.53;1.67;;;;;;;;;;5033293;28;20137;-58
2022/08/28 09:44:24;;;;;;;2.97;1.23;;;;;;;;;;5048774;28;20048;-55
2022/08/28 09:46:51;;;;;;;2.60;1.30;;;;;;;;;;5048228;28;20392;-54
2022/08/28 09:49:22;;;;;;;1.25;0.98;;;;;;;;;;5047235;28;20084;-55
2022/08/28 09:51:49;;;;;;;2.40;1.40;;;;;;;;;;5028124;28;20396;-55
2022/08/28 09:54:32;;;;;;;2.25;1.42;;;;;;;;;;5028452;28;20049;-55
2022/08/28 09:56:58;;;;;;;1.83;1.10;;;;;;;;;;5027765;28;20072;-54
2022/08/28 09:59:25;;;;;;;1.02;0.93;;;;;;;;;;5028947;28;20041;-54
2022/08/28 10:02:10;;;;;;;2.30;1.13;;;;;;;;;;5034107;28;20552;-57
2022/08/28 10:04:36;;;;;;;;;;;;;;;;;;5033151;28;20041;-55
2022/08/28 10:07:05;;;;;;;1.48;1.05;;;;;;;;;;5036621;28;20409;-54
2022/08/28 10:09:55;;;;;;;1.45;1.00;;;;;;;;;;5035703;28;20533;-57
2022/08/28 10:12:24;;;;;;;1.85;1.20;;;;;;;;;;5044109;28;20349;-54
2022/08/28 10:15:10;;;;;;;1.20;0.77;;;;;;;;;;5046677;28;20056;-56
2022/08/28 10:17:36;;;;;;;;;;;;;;;;;;5021332;28;20103;-54
2022/08/28 10:20:02;;;;;;;;;;;;;;;;;;5038739;28;20339;-56
2022/08/28 10:22:29;;;;;;;;;;;;;;;;;;5044927;28;19932;-55
2022/08/28 10:25:03;;;;;;;1.90;1.00;;;;;;;;;;5041831;28;19947;-54
2022/08/28 10:27:32;;;;;;;1.83;0.80;;;;;;;;;;5037316;28;20406;-54
2022/08/28 10:30:05;;;;;;;1.67;1.05;;;;;;;;;;5045639;28;20041;-57
2022/08/28 10:32:50;;;;;;;1.85;1.30;;;;;;;;;;5044060;28;20053;-57
2022/08/28 10:35:24;;;;;;;2.08;1.40;;;;;;;;;;5045835;28;20084;-54
2022/08/28 10:38:06;;;;;;;1.40;1.23;;;;;;;;;;5045730;28;20049;-56
2022/08/28 10:40:38;;;;;;;1.95;1.20;;;;;;;;;;5045211;28;20095;-55
2022/08/28 10:43:10;;;;;;;3.42;1.23;;;;;;;;;;5042198;28;20045;-57
2022/08/28 10:45:36;;;;;;;2.17;1.42;;;;;;;;;;5039866;28;20143;-56
2022/08/28 10:48:10;;;;;;;3.35;1.48;;;;;;;;;;5045720;28;20059;-56
2022/08/28 10:50:36;;;;;;;3.88;1.77;;;;;;;;;;5045467;28;20080;-55
2022/08/28 10:53:06;;;;;;;2.85;0.98;;;;;;;;;;5044967;28;20456;-58
2022/08/28 10:55:47;;;;;;;1.45;1.00;;;;;;;;;;5043812;28;20123;-58
2022/08/28 10:58:15;;;;;;;2.88;1.50;;;;;;;;;;5044639;28;20056;-57
2022/08/28 11:00:44;;;;;;;2.50;1.20;;;;;;;;;;5037268;28;20041;-57
2022/08/28 11:03:13;;;;;;;1.60;0.90;;;;;;;;;;5041006;28;20083;-57
2022/08/28 11:05:39;;;;;;;;;;;;;;;;;;5030864;28;20002;-55
2022/08/28 11:08:06;;;;;;;1.77;1.10;;;;;;;;;;5040031;28;19974;-57
2022/08/28 11:10:35;;;;;;;1.15;0.90;;;;;;;;;;5041587;28;20049;-57
2022/08/28 11:13:03;;;;;;;2.70;1.73;;;;;;;;;;5036256;28;20064;-55
2022/08/28 11:15:32;;;;;;;2.45;1.33;;;;;;;;;;5031499;28;20049;-57
2022/08/28 11:18:06;;;;;;;2.80;1.30;;;;;;;;;;5026758;28;20045;-56
2022/08/28 11:20:33;;;;;;;1.33;1.02;;;;;;;;;;5025317;28;20048;-57
2022/08/28 11:23:00;;;;;;;1.75;1.00;;;;;;;;;;5031046;28;20506;-55
2022/08/28 11:25:41;;;;;;;2.13;1.02;;;;;;;;;;5036469;28;20482;-58
2022/08/28 11:28:16;;;;;;;1.40;0.90;;;;;;;;;;5036810;28;20048;-57
2022/08/28 11:30:44;;;;;;;1.77;1.05;;;;;;;;;;5034091;28;20110;-57
2022/08/28 11:33:29;;;;;;;5.93;1.40;;;;;;;;;;5045589;28;20053;-58
2022/08/28 11:35:55;;;;;;;1.95;1.40;;;;;;;;;;5038468;28;20064;-57
2022/08/28 11:38:40;;;;;;;1.58;1.00;;;;;;;;;;5044409;28;20155;-58
2022/08/28 11:41:12;;;;;;;1.50;1.35;;;;;;;;;;5039491;28;20089;-55
2022/08/28 11:43:37;;;;;;;;;;;;;;;;;;5033614;28;20405;-56
2022/08/28 11:46:05;;;;;;;1.85;1.15;;;;;;;;;;5041393;28;19924;-58
2022/08/28 11:48:34;;;;;;;2.85;1.20;;;;;;;;;;5041739;28;20048;-59
2022/08/28 11:51:05;;;;;;;2.25;1.20;;;;;;;;;;5042817;28;20110;-56
2022/08/28 11:53:50;;;;;;;2.15;0.98;;;;;;;;;;5039710;28;20053;-58
2022/08/28 11:56:35;;;;;;;1.85;1.00;;;;;;;;;;5037953;28;20102;-56
2022/08/28 11:59:20;;;;;;;1.75;1.02;;;;;;;;;;5039041;28;20477;-57
2022/08/28 12:01:46;;;;;;;3.20;1.10;;;;;;;;;;5036382;28;20424;-60
2022/08/28 12:04:17;;;;;;;2.53;1.13;;;;;;;;;;5045930;28;20462;-55
2022/08/28 12:06:51;;;;;;;1.58;0.95;;;;;;;;;;5046594;28;20080;-56
2022/08/28 12:09:26;;;;;;;2.42;1.00;;;;;;;;;;5044216;28;20063;-58
2022/08/28 12:11:51;;;;;;;2.05;1.00;;;;;;;;;;5036108;28;20044;-57
2022/08/28 12:14:27;;;;;;;1.35;0.80;;;;;;;;;;5041979;28;20450;-58
2022/08/28 12:16:59;;;;;;;1.85;0.90;;;;;;;;;;5041983;28;20157;-56
2022/08/28 12:19:42;;;;;;;4.07;1.10;;;;;;;;;;5045497;28;20048;-59
2022/08/28 12:22:13;;;;;;;1.55;1.20;;;;;;;;;;5038224;28;20048;-59
2022/08/28 12:25:00;;;;;;;1.17;0.88;;;;;;;;;;5044511;28;20105;-58
2022/08/28 12:27:28;;;;;;;1.70;1.08;;;;;;;;;;5012813;28;20053;-58
2022/08/28 12:29:55;;;;;;;1.60;1.20;;;;;;;;;;5034460;28;20056;-59
2022/08/28 12:32:27;;;;;;;1.08;0.75;;;;;;;;;;5035762;28;20133;-58
2022/08/28 12:34:53;;;;;;;;;;;;;;;;;;5033893;28;20052;-56
2022/08/28 12:37:19;;;;;;;;;;;;;;;;;;5039104;28;20297;-54
2022/08/28 12:39:45;;;;;;;;;;;;;;;;;;5045115;28;19932;-58
2022/08/28 12:42:11;;;;;;;;;;;;;;;;;;5038389;28;19921;-58
2022/08/28 12:44:37;;;;;;;;;;;;;;;;;;5038982;28;19975;-58
2022/08/28 12:47:03;;;;;;;;;;;;;;;;;;5039140;28;19964;-55
2022/08/28 12:49:30;;;;;;;;;;;;;;;;;;5036844;28;20035;-58
2022/08/28 12:51:55;;;;;;;;;;;;;;;;;;5036174;28;20320;-56
2022/08/28 12:54:21;;;;;;;4.75;1.13;;;;;;;;;;5041256;28;19968;-58
2022/08/28 12:56:47;;;;;;;1.73;0.85;;;;;;;;;;5032399;28;20061;-57
2022/08/28 12:59:32;;;;;;;2.15;0.93;;;;;;;;;;5037363;28;20417;-57
2022/08/28 13:02:03;;;;;;;0.82;0.70;;;;;;;;;;5031603;28;20057;-56
2022/08/28 13:04:37;;;;;;;1.17;0.68;;;;;;;;;;5038194;28;20100;-56
2022/08/28 13:07:07;;;;;;;1.40;0.90;;;;;;;;;;5033261;28;20042;-59
2022/08/28 13:09:34;;;;;;;1.02;0.73;;;;;;;;;;5036620;28;20384;-59
2022/08/28 13:12:00;;;;;;;1.42;0.68;;;;;;;;;;5043177;28;20127;-61
2022/08/28 13:14:39;;;;;;;0.70;0.40;;;;;;;;;;5040551;28;20114;-55
2022/08/28 13:17:05;;;;;;;1.20;0.63;;;;;;;;;;5039580;28;20053;-54
2022/08/28 13:19:32;;;;;;;1.52;0.80;;;;;;;;;;5038277;28;20040;-58
2022/08/28 13:22:01;;;;;;;0.93;0.73;;;;;;;;;;5044675;28;20136;-55
2022/08/28 13:24:35;;;;;;;1.80;0.70;;;;;;;;;;5043684;28;20076;-55
2022/08/28 13:27:03;;;;;;;2.30;1.00;;;;;;;;;;5021190;28;20516;-55
2022/08/28 13:29:30;;;;;;;0.57;0.50;;;;;;;;;;5044643;28;20096;-56
2022/08/28 13:32:01;;;;;;;0.80;0.43;;;;;;;;;;5043375;28;20136;-55
2022/08/28 13:34:28;;;;;;;0.75;0.60;;;;;;;;;;5043725;28;20453;-55
2022/08/28 13:36:58;;;;;;;0.55;0.47;;;;;;;;;;5047336;28;20048;-55
2022/08/28 13:39:24;;;;;;;0.75;0.38;;;;;;;;;;5044949;28;20128;-56
2022/08/28 13:41:55;;;;;;;1.95;0.60;;;;;;;;;;5036997;28;20073;-58
2022/08/28 13:44:24;;;;;;;0.50;0.40;;;;;;;;;;5028630;28;20045;-55
2022/08/28 13:46:50;;;;;;;0.98;0.50;;;;;;;;;;5031842;28;20052;-57
2022/08/28 13:49:16;;;;;;;3.90;0.90;;;;;;;;;;5038251;28;20045;-58
2022/08/28 13:51:42;;;;;;;0.93;0.60;;;;;;;;;;5039849;28;20041;-58
2022/08/28 13:54:08;;;;;;;1.15;0.52;;;;;;;;;;5035270;28;20743;-57
2022/08/28 13:56:34;;;;;;;1.17;0.82;;;;;;;;;;5044846;28;20098;-55
2022/08/28 13:59:00;;;;;;;1.20;0.80;;;;;;;;;;5047424;28;20060;-61
2022/08/28 14:03:34;;;;;;;0.50;0.47;;;;;;;;;;5033232;28;20128;-57
2022/08/28 14:04:12;;;;;;;;;;;;;;;;;;5045975;28;20517;-55
2022/08/28 14:06:40;;;;;;;;;;;;;;;;;;5047676;28;19924;-56
2022/08/28 14:09:11;;;;;;;;;;;;;;;;;;5047108;28;19924;-56
2022/08/28 14:11:37;;;;;;;0.95;0.70;;;;;;;;;;5047551;28;20069;-53
2022/08/28 14:14:03;;;;;;;;;;;;;;;;;;5038343;28;20056;-56
2022/08/28 14:16:30;;;;;;;;;;;;;;;;;;5042866;28;19929;-57
2022/08/28 14:18:56;;;;;;;;;;;;;;;;;;5040495;28;19993;-55
2022/08/28 14:21:23;;;;;;;;;;;;;;;;;;5047652;28;20377;-56
2022/08/28 14:23:49;;;;;;;;;;;;;;;;;;5044972;28;20113;-53
2022/08/28 14:26:15;;;;;;;;;;;;;;;;;;5047757;28;19940;-55
2022/08/28 14:28:41;;;;;;;;;;;;;;;;;;5044606;28;19924;-53
2022/08/28 14:31:07;;;;;;;;;;;;;;;;;;5046886;28;20305;-54
2022/08/28 14:33:34;;;;;;;0.93;0.60;;;;;;;;;;5045136;28;19925;-55
2022/08/28 14:36:01;;;;;;;0.80;0.43;;;;;;;;;;5038845;28;20059;-58
2022/08/28 14:38:27;;;;;;;1.55;0.70;;;;;;;;;;5038283;28;20053;-54
2022/08/28 14:40:53;;;;;;;0.60;0.40;;;;;;;;;;5027399;28;19928;-56
2022/08/28 14:43:19;;;;;;;1.17;0.60;;;;;;;;;;5037758;28;20041;-55
2022/08/28 14:45:45;;;;;;;;;;;;;;;;;;5047359;28;20081;-56
2022/08/28 14:48:11;;;;;;;2.13;0.82;;;;;;;;;;5041594;28;20281;-53
2022/08/28 14:50:39;;;;;;;1.00;0.57;;;;;;;;;;5038274;28;20055;-55
2022/08/28 14:53:05;;;;;;;2.13;1.00;;;;;;;;;;5028701;28;20502;-53
2022/08/28 14:55:31;;;;;;;1.20;0.68;;;;;;;;;;5027409;28;20111;-60
2022/08/28 14:57:58;;;;;;;1.75;0.80;;;;;;;;;;5033343;28;20049;-54
2022/08/28 15:00:24;;;;;;;0.50;0.50;;;;;;;;;;5039658;28;19976;-55
2022/08/28 15:02:50;;;;;;;0.50;0.45;;;;;;;;;;5031149;28;20273;-55
2022/08/28 15:05:16;;;;;;;0.30;0.30;;;;;;;;;;5039573;28;20045;-55
2022/08/28 15:07:42;;;;;;;1.03;0.50;;;;;;;;;;5042148;28;20048;-56
2022/08/28 15:10:12;;;;;;;1.08;0.60;;;;;;;;;;5034928;28;19931;-55
2022/08/28 15:12:38;;;;;;;1.70;0.60;;;;;;;;;;5032157;28;20854;-55
2022/08/28 15:15:04;;;;;;;1.00;0.45;;;;;;;;;;5038288;28;20053;-56